KMFD

Mansfield Lahm Regional Airport

Mansfield, Ohio, USA
METAR KMFD 181252Z 00000KT 10SM OVC019 M04/M06 A3021 RMK AO2 SLP246 T10441056
Observed Flight Rules
Dec-18 @ 12:52 UTC (27 minutes ago) Marginal Visual Flight Rules
Visibility Clouds
10 miles
  • Overcast at 1,900' AGL
Temperatures Readings
Current -4°C / 25°F
Dewpoint -6°C / 21°F
Humidity 86%
Altimeter 30.21" Hg
Pressure 1024.6 hPa
Elevation 395
METAR KMFD 181252Z 00000KT 10SM OVC019 M04/M06 A3021 RMK AO2 SLP246 T10441056
Observed Flight Rules
Dec-18 @ 12:52 UTC
(27 minutes ago)
MVFR
Clouds
  • Overcast at 1,900' AGL
Temperature Dewpoint
-4°C / 25°F -6°C / 21°F
Humidity Altimeter Pressure
86% 30.21" Hg 1024.6 hPa